sensor_id;sensor_type;location;lat;lon;timestamp;P1;durP1;ratioP1;P2;durP2;ratioP2
54683;SDS011;40582;53.100;6.686;2023-03-31T00:00:44;49.92;;;7.97;;
54683;SDS011;40582;53.100;6.686;2023-03-31T00:03:11;42.55;;;7.93;;
54683;SDS011;40582;53.100;6.686;2023-03-31T00:05:37;49.08;;;8.88;;
54683;SDS011;40582;53.100;6.686;2023-03-31T00:08:04;45.45;;;7.53;;
54683;SDS011;40582;53.100;6.686;2023-03-31T00:10:30;36.75;;;7.03;;
54683;SDS011;40582;53.100;6.686;2023-03-31T00:12:58;47.33;;;7.55;;
54683;SDS011;40582;53.100;6.686;2023-03-31T00:15:25;34.38;;;6.55;;
54683;SDS011;40582;53.100;6.686;2023-03-31T00:17:52;39.50;;;6.80;;
54683;SDS011;40582;53.100;6.686;2023-03-31T00:20:18;44.97;;;7.88;;
54683;SDS011;40582;53.100;6.686;2023-03-31T00:22:44;46.47;;;8.00;;
54683;SDS011;40582;53.100;6.686;2023-03-31T00:25:12;43.40;;;7.53;;
54683;SDS011;40582;53.100;6.686;2023-03-31T00:27:42;43.03;;;7.97;;
54683;SDS011;40582;53.100;6.686;2023-03-31T00:30:09;53.25;;;9.43;;
54683;SDS011;40582;53.100;6.686;2023-03-31T00:32:36;44.75;;;6.82;;
54683;SDS011;40582;53.100;6.686;2023-03-31T00:35:02;43.53;;;7.25;;
54683;SDS011;40582;53.100;6.686;2023-03-31T00:37:29;38.92;;;7.25;;
54683;SDS011;40582;53.100;6.686;2023-03-31T00:39:55;47.28;;;8.27;;
54683;SDS011;40582;53.100;6.686;2023-03-31T00:42:21;42.30;;;8.02;;
54683;SDS011;40582;53.100;6.686;2023-03-31T00:47:38;41.10;;;7.15;;
54683;SDS011;40582;53.100;6.686;2023-03-31T00:50:12;33.28;;;6.00;;
54683;SDS011;40582;53.100;6.686;2023-03-31T00:52:45;39.88;;;7.03;;
54683;SDS011;40582;53.100;6.686;2023-03-31T00:55:37;36.03;;;6.82;;
54683;SDS011;40582;53.100;6.686;2023-03-31T00:58:07;46.10;;;7.40;;
54683;SDS011;40582;53.100;6.686;2023-03-31T01:00:39;51.05;;;7.93;;
54683;SDS011;40582;53.100;6.686;2023-03-31T01:03:06;36.60;;;6.53;;
54683;SDS011;40582;53.100;6.686;2023-03-31T01:05:46;32.42;;;5.63;;
54683;SDS011;40582;53.100;6.686;2023-03-31T01:08:16;35.15;;;5.93;;
54683;SDS011;40582;53.100;6.686;2023-03-31T01:10:45;41.95;;;7.05;;
54683;SDS011;40582;53.100;6.686;2023-03-31T01:13:15;33.95;;;6.70;;
54683;SDS011;40582;53.100;6.686;2023-03-31T01:15:41;39.83;;;6.78;;
54683;SDS011;40582;53.100;6.686;2023-03-31T01:18:08;34.10;;;6.20;;
54683;SDS011;40582;53.100;6.686;2023-03-31T01:20:38;36.25;;;7.10;;
54683;SDS011;40582;53.100;6.686;2023-03-31T01:42:55;31.15;;;6.40;;
54683;SDS011;40582;53.100;6.686;2023-03-31T01:48:12;32.53;;;6.63;;
54683;SDS011;40582;53.100;6.686;2023-03-31T01:53:50;29.95;;;5.40;;
54683;SDS011;40582;53.100;6.686;2023-03-31T01:56:25;34.65;;;5.68;;
54683;SDS011;40582;53.100;6.686;2023-03-31T01:59:11;33.00;;;6.00;;
54683;SDS011;40582;53.100;6.686;2023-03-31T02:01:48;34.05;;;6.13;;
54683;SDS011;40582;53.100;6.686;2023-03-31T02:04:26;32.22;;;5.90;;
54683;SDS011;40582;53.100;6.686;2023-03-31T02:06:58;35.13;;;5.97;;
54683;SDS011;40582;53.100;6.686;2023-03-31T02:09:29;38.63;;;7.03;;
54683;SDS011;40582;53.100;6.686;2023-03-31T02:11:59;28.60;;;5.47;;
54683;SDS011;40582;53.100;6.686;2023-03-31T02:14:29;35.03;;;5.75;;
54683;SDS011;40582;53.100;6.686;2023-03-31T02:16:57;36.22;;;8.27;;
54683;SDS011;40582;53.100;6.686;2023-03-31T02:19:30;34.97;;;5.40;;
54683;SDS011;40582;53.100;6.686;2023-03-31T02:21:59;36.63;;;5.82;;
54683;SDS011;40582;53.100;6.686;2023-03-31T02:24:28;29.45;;;5.63;;
54683;SDS011;40582;53.100;6.686;2023-03-31T02:27:00;32.60;;;6.55;;
54683;SDS011;40582;53.100;6.686;2023-03-31T02:29:33;33.92;;;6.32;;
54683;SDS011;40582;53.100;6.686;2023-03-31T02:34:49;34.80;;;6.25;;
54683;SDS011;40582;53.100;6.686;2023-03-31T02:37:15;30.50;;;5.55;;
54683;SDS011;40582;53.100;6.686;2023-03-31T02:39:42;32.10;;;6.15;;
54683;SDS011;40582;53.100;6.686;2023-03-31T02:42:11;35.00;;;6.28;;
54683;SDS011;40582;53.100;6.686;2023-03-31T02:44:37;27.95;;;5.90;;
54683;SDS011;40582;53.100;6.686;2023-03-31T02:47:07;31.85;;;5.40;;
54683;SDS011;40582;53.100;6.686;2023-03-31T02:49:36;27.17;;;5.95;;
54683;SDS011;40582;53.100;6.686;2023-03-31T02:57:44;38.20;;;6.75;;
54683;SDS011;40582;53.100;6.686;2023-03-31T03:00:25;26.55;;;5.22;;
54683;SDS011;40582;53.100;6.686;2023-03-31T03:11:24;29.60;;;6.05;;
54683;SDS011;40582;53.100;6.686;2023-03-31T03:14:18;28.58;;;5.50;;
54683;SDS011;40582;53.100;6.686;2023-03-31T03:17:05;21.58;;;4.75;;
54683;SDS011;40582;53.100;6.686;2023-03-31T03:19:58;31.45;;;6.05;;
54683;SDS011;40582;53.100;6.686;2023-03-31T03:22:25;29.83;;;5.68;;
54683;SDS011;40582;53.100;6.686;2023-03-31T03:24:51;22.13;;;4.82;;
54683;SDS011;40582;53.100;6.686;2023-03-31T03:27:17;23.80;;;4.70;;
54683;SDS011;40582;53.100;6.686;2023-03-31T03:29:46;39.92;;;5.35;;
54683;SDS011;40582;53.100;6.686;2023-03-31T03:32:12;24.58;;;5.72;;
54683;SDS011;40582;53.100;6.686;2023-03-31T03:34:38;31.02;;;5.75;;
54683;SDS011;40582;53.100;6.686;2023-03-31T03:37:04;25.73;;;4.30;;
54683;SDS011;40582;53.100;6.686;2023-03-31T03:39:30;22.10;;;4.68;;
54683;SDS011;40582;53.100;6.686;2023-03-31T03:41:55;21.85;;;4.78;;
54683;SDS011;40582;53.100;6.686;2023-03-31T03:44:21;21.38;;;4.63;;
54683;SDS011;40582;53.100;6.686;2023-03-31T03:46:47;20.85;;;4.78;;
54683;SDS011;40582;53.100;6.686;2023-03-31T03:49:13;25.80;;;5.30;;
54683;SDS011;40582;53.100;6.686;2023-03-31T03:51:38;23.95;;;4.80;;
54683;SDS011;40582;53.100;6.686;2023-03-31T03:54:04;22.65;;;5.60;;
54683;SDS011;40582;53.100;6.686;2023-03-31T03:56:30;20.15;;;4.80;;
54683;SDS011;40582;53.100;6.686;2023-03-31T03:58:55;18.17;;;5.00;;
54683;SDS011;40582;53.100;6.686;2023-03-31T04:01:21;23.10;;;5.60;;
54683;SDS011;40582;53.100;6.686;2023-03-31T04:03:47;19.20;;;5.18;;
54683;SDS011;40582;53.100;6.686;2023-03-31T04:06:13;21.05;;;5.55;;
54683;SDS011;40582;53.100;6.686;2023-03-31T04:08:39;16.35;;;4.55;;
54683;SDS011;40582;53.100;6.686;2023-03-31T04:11:10;19.77;;;5.45;;
54683;SDS011;40582;53.100;6.686;2023-03-31T04:13:38;22.13;;;4.78;;
54683;SDS011;40582;53.100;6.686;2023-03-31T04:16:04;17.38;;;4.63;;
54683;SDS011;40582;53.100;6.686;2023-03-31T04:18:30;16.50;;;4.80;;
54683;SDS011;40582;53.100;6.686;2023-03-31T04:20:55;20.45;;;5.47;;
54683;SDS011;40582;53.100;6.686;2023-03-31T04:23:44;13.25;;;4.93;;
54683;SDS011;40582;53.100;6.686;2023-03-31T04:26:13;19.45;;;5.72;;
54683;SDS011;40582;53.100;6.686;2023-03-31T04:28:40;14.68;;;5.18;;
54683;SDS011;40582;53.100;6.686;2023-03-31T04:31:11;21.05;;;6.28;;
54683;SDS011;40582;53.100;6.686;2023-03-31T04:33:52;18.20;;;5.63;;
54683;SDS011;40582;53.100;6.686;2023-03-31T04:36:19;13.07;;;5.00;;
54683;SDS011;40582;53.100;6.686;2023-03-31T04:38:45;22.73;;;6.30;;
54683;SDS011;40582;53.100;6.686;2023-03-31T04:41:15;17.88;;;6.43;;
54683;SDS011;40582;53.100;6.686;2023-03-31T04:43:41;15.93;;;5.90;;
54683;SDS011;40582;53.100;6.686;2023-03-31T04:46:07;17.63;;;5.20;;
54683;SDS011;40582;53.100;6.686;2023-03-31T04:48:33;13.70;;;5.70;;
54683;SDS011;40582;53.100;6.686;2023-03-31T04:50:59;17.08;;;5.40;;
54683;SDS011;40582;53.100;6.686;2023-03-31T04:53:25;24.83;;;6.72;;
54683;SDS011;40582;53.100;6.686;2023-03-31T04:55:51;17.40;;;5.30;;
54683;SDS011;40582;53.100;6.686;2023-03-31T04:58:16;18.45;;;5.65;;
54683;SDS011;40582;53.100;6.686;2023-03-31T05:00:42;16.33;;;5.82;;
54683;SDS011;40582;53.100;6.686;2023-03-31T05:03:08;20.65;;;5.93;;
54683;SDS011;40582;53.100;6.686;2023-03-31T05:05:34;17.58;;;5.95;;
54683;SDS011;40582;53.100;6.686;2023-03-31T05:08:00;12.90;;;5.10;;
54683;SDS011;40582;53.100;6.686;2023-03-31T05:10:26;21.08;;;6.25;;
54683;SDS011;40582;53.100;6.686;2023-03-31T05:12:53;18.70;;;5.57;;
54683;SDS011;40582;53.100;6.686;2023-03-31T05:15:18;18.13;;;5.72;;
54683;SDS011;40582;53.100;6.686;2023-03-31T05:17:44;20.92;;;6.13;;
54683;SDS011;40582;53.100;6.686;2023-03-31T05:20:10;19.10;;;5.90;;
54683;SDS011;40582;53.100;6.686;2023-03-31T05:22:37;17.20;;;5.28;;
54683;SDS011;40582;53.100;6.686;2023-03-31T05:25:04;17.60;;;5.07;;
54683;SDS011;40582;53.100;6.686;2023-03-31T05:27:31;15.52;;;5.78;;
54683;SDS011;40582;53.100;6.686;2023-03-31T05:29:58;23.67;;;6.15;;
54683;SDS011;40582;53.100;6.686;2023-03-31T05:32:24;18.67;;;5.13;;
54683;SDS011;40582;53.100;6.686;2023-03-31T05:34:51;20.08;;;4.97;;
54683;SDS011;40582;53.100;6.686;2023-03-31T05:37:21;18.05;;;5.03;;
54683;SDS011;40582;53.100;6.686;2023-03-31T05:39:48;15.25;;;4.95;;
54683;SDS011;40582;53.100;6.686;2023-03-31T05:42:14;16.33;;;4.75;;
54683;SDS011;40582;53.100;6.686;2023-03-31T05:44:40;18.60;;;5.38;;
54683;SDS011;40582;53.100;6.686;2023-03-31T05:47:05;16.45;;;5.05;;
54683;SDS011;40582;53.100;6.686;2023-03-31T05:49:31;18.90;;;5.18;;
54683;SDS011;40582;53.100;6.686;2023-03-31T05:51:57;23.05;;;5.28;;
54683;SDS011;40582;53.100;6.686;2023-03-31T05:54:22;15.85;;;4.75;;
54683;SDS011;40582;53.100;6.686;2023-03-31T05:56:48;13.75;;;4.18;;
54683;SDS011;40582;53.100;6.686;2023-03-31T05:59:14;14.00;;;4.80;;
54683;SDS011;40582;53.100;6.686;2023-03-31T06:01:40;14.88;;;4.72;;
54683;SDS011;40582;53.100;6.686;2023-03-31T06:04:06;14.07;;;4.32;;
54683;SDS011;40582;53.100;6.686;2023-03-31T06:06:31;17.63;;;4.90;;
54683;SDS011;40582;53.100;6.686;2023-03-31T06:08:59;21.42;;;4.72;;
54683;SDS011;40582;53.100;6.686;2023-03-31T06:11:25;12.32;;;4.43;;
54683;SDS011;40582;53.100;6.686;2023-03-31T06:13:51;18.33;;;4.75;;
54683;SDS011;40582;53.100;6.686;2023-03-31T06:16:16;17.55;;;4.90;;
54683;SDS011;40582;53.100;6.686;2023-03-31T06:18:43;14.18;;;4.70;;
54683;SDS011;40582;53.100;6.686;2023-03-31T06:21:10;18.08;;;4.68;;
54683;SDS011;40582;53.100;6.686;2023-03-31T06:23:38;14.85;;;4.30;;
54683;SDS011;40582;53.100;6.686;2023-03-31T06:26:05;14.95;;;4.32;;
54683;SDS011;40582;53.100;6.686;2023-03-31T06:28:35;13.38;;;4.28;;
54683;SDS011;40582;53.100;6.686;2023-03-31T06:31:02;11.20;;;4.13;;
54683;SDS011;40582;53.100;6.686;2023-03-31T06:33:32;17.42;;;4.63;;
54683;SDS011;40582;53.100;6.686;2023-03-31T06:35:59;14.02;;;3.78;;
54683;SDS011;40582;53.100;6.686;2023-03-31T06:38:29;13.05;;;4.00;;
54683;SDS011;40582;53.100;6.686;2023-03-31T06:40:55;12.55;;;4.15;;
54683;SDS011;40582;53.100;6.686;2023-03-31T06:43:21;13.50;;;3.95;;
54683;SDS011;40582;53.100;6.686;2023-03-31T06:45:47;12.43;;;4.03;;
54683;SDS011;40582;53.100;6.686;2023-03-31T06:48:13;14.32;;;4.25;;
54683;SDS011;40582;53.100;6.686;2023-03-31T06:50:39;14.05;;;4.00;;
54683;SDS011;40582;53.100;6.686;2023-03-31T06:53:06;14.10;;;4.28;;
54683;SDS011;40582;53.100;6.686;2023-03-31T06:55:33;14.75;;;4.80;;
54683;SDS011;40582;53.100;6.686;2023-03-31T06:57:58;15.10;;;4.35;;
54683;SDS011;40582;53.100;6.686;2023-03-31T07:00:24;13.07;;;4.35;;
54683;SDS011;40582;53.100;6.686;2023-03-31T07:02:51;8.13;;;3.80;;
54683;SDS011;40582;53.100;6.686;2023-03-31T07:05:17;10.80;;;4.15;;
54683;SDS011;40582;53.100;6.686;2023-03-31T07:07:44;12.45;;;3.83;;
54683;SDS011;40582;53.100;6.686;2023-03-31T07:10:10;11.20;;;3.53;;
54683;SDS011;40582;53.100;6.686;2023-03-31T07:12:35;13.25;;;4.10;;
54683;SDS011;40582;53.100;6.686;2023-03-31T07:15:01;14.40;;;4.03;;
54683;SDS011;40582;53.100;6.686;2023-03-31T07:17:27;14.57;;;4.13;;
54683;SDS011;40582;53.100;6.686;2023-03-31T07:19:53;11.50;;;3.88;;
54683;SDS011;40582;53.100;6.686;2023-03-31T07:22:18;11.90;;;4.28;;
54683;SDS011;40582;53.100;6.686;2023-03-31T07:24:44;13.30;;;4.40;;
54683;SDS011;40582;53.100;6.686;2023-03-31T07:27:10;13.68;;;3.97;;
54683;SDS011;40582;53.100;6.686;2023-03-31T07:29:36;13.57;;;4.25;;
54683;SDS011;40582;53.100;6.686;2023-03-31T07:32:01;13.05;;;4.55;;
54683;SDS011;40582;53.100;6.686;2023-03-31T07:34:27;15.65;;;4.93;;
54683;SDS011;40582;53.100;6.686;2023-03-31T07:36:56;12.88;;;4.47;;
54683;SDS011;40582;53.100;6.686;2023-03-31T07:39:22;11.52;;;4.00;;
54683;SDS011;40582;53.100;6.686;2023-03-31T07:41:48;12.35;;;4.10;;
54683;SDS011;40582;53.100;6.686;2023-03-31T07:44:14;10.13;;;4.22;;
54683;SDS011;40582;53.100;6.686;2023-03-31T07:46:41;11.93;;;4.18;;
54683;SDS011;40582;53.100;6.686;2023-03-31T07:49:07;10.82;;;4.38;;
54683;SDS011;40582;53.100;6.686;2023-03-31T07:51:34;13.60;;;4.00;;
54683;SDS011;40582;53.100;6.686;2023-03-31T07:54:00;10.65;;;3.58;;
54683;SDS011;40582;53.100;6.686;2023-03-31T07:56:25;9.98;;;4.22;;
54683;SDS011;40582;53.100;6.686;2023-03-31T07:58:51;9.98;;;3.47;;
54683;SDS011;40582;53.100;6.686;2023-03-31T08:01:19;7.22;;;3.28;;
54683;SDS011;40582;53.100;6.686;2023-03-31T08:03:46;8.55;;;3.00;;
54683;SDS011;40582;53.100;6.686;2023-03-31T08:06:19;11.50;;;3.10;;
54683;SDS011;40582;53.100;6.686;2023-03-31T08:08:47;10.07;;;3.55;;
54683;SDS011;40582;53.100;6.686;2023-03-31T08:11:13;9.73;;;3.22;;
54683;SDS011;40582;53.100;6.686;2023-03-31T08:13:39;10.93;;;3.15;;
54683;SDS011;40582;53.100;6.686;2023-03-31T08:16:05;11.90;;;3.58;;
54683;SDS011;40582;53.100;6.686;2023-03-31T08:18:31;12.50;;;4.07;;
54683;SDS011;40582;53.100;6.686;2023-03-31T08:20:57;6.72;;;3.30;;
54683;SDS011;40582;53.100;6.686;2023-03-31T08:23:22;13.70;;;3.85;;
54683;SDS011;40582;53.100;6.686;2023-03-31T08:25:48;10.55;;;3.53;;
54683;SDS011;40582;53.100;6.686;2023-03-31T08:28:13;11.55;;;3.40;;
54683;SDS011;40582;53.100;6.686;2023-03-31T08:30:40;9.40;;;4.10;;
54683;SDS011;40582;53.100;6.686;2023-03-31T08:33:06;13.95;;;5.78;;
54683;SDS011;40582;53.100;6.686;2023-03-31T08:35:35;11.07;;;5.05;;
54683;SDS011;40582;53.100;6.686;2023-03-31T08:38:01;10.23;;;3.70;;
54683;SDS011;40582;53.100;6.686;2023-03-31T08:40:27;15.98;;;4.85;;
54683;SDS011;40582;53.100;6.686;2023-03-31T08:42:56;12.98;;;3.53;;
54683;SDS011;40582;53.100;6.686;2023-03-31T08:45:38;16.52;;;3.67;;
54683;SDS011;40582;53.100;6.686;2023-03-31T08:50:44;14.18;;;3.92;;
54683;SDS011;40582;53.100;6.686;2023-03-31T08:55:53;15.57;;;4.05;;
54683;SDS011;40582;53.100;6.686;2023-03-31T09:01:07;18.58;;;4.32;;
54683;SDS011;40582;53.100;6.686;2023-03-31T09:09:30;11.18;;;4.00;;
54683;SDS011;40582;53.100;6.686;2023-03-31T09:12:12;11.98;;;3.70;;
54683;SDS011;40582;53.100;6.686;2023-03-31T09:14:53;14.57;;;4.27;;
54683;SDS011;40582;53.100;6.686;2023-03-31T09:17:26;12.82;;;4.63;;
54683;SDS011;40582;53.100;6.686;2023-03-31T09:20:18;16.20;;;3.90;;
54683;SDS011;40582;53.100;6.686;2023-03-31T09:22:51;12.90;;;3.90;;
54683;SDS011;40582;53.100;6.686;2023-03-31T09:25:25;13.88;;;3.63;;
54683;SDS011;40582;53.100;6.686;2023-03-31T09:27:55;16.42;;;4.05;;
54683;SDS011;40582;53.100;6.686;2023-03-31T09:30:27;14.32;;;3.70;;
54683;SDS011;40582;53.100;6.686;2023-03-31T09:33:02;12.55;;;3.78;;
54683;SDS011;40582;53.100;6.686;2023-03-31T09:35:34;13.73;;;3.78;;
54683;SDS011;40582;53.100;6.686;2023-03-31T09:37:59;14.98;;;4.20;;
54683;SDS011;40582;53.100;6.686;2023-03-31T09:40:26;13.93;;;3.72;;
54683;SDS011;40582;53.100;6.686;2023-03-31T09:42:57;11.55;;;3.30;;
54683;SDS011;40582;53.100;6.686;2023-03-31T09:45:25;15.52;;;4.25;;
54683;SDS011;40582;53.100;6.686;2023-03-31T09:47:56;14.43;;;4.10;;
54683;SDS011;40582;53.100;6.686;2023-03-31T09:50:24;11.20;;;3.60;;
54683;SDS011;40582;53.100;6.686;2023-03-31T09:52:54;10.15;;;3.75;;
54683;SDS011;40582;53.100;6.686;2023-03-31T09:55:31;15.82;;;3.88;;
54683;SDS011;40582;53.100;6.686;2023-03-31T09:58:07;14.68;;;4.07;;
54683;SDS011;40582;53.100;6.686;2023-03-31T10:00:39;15.57;;;3.75;;
54683;SDS011;40582;53.100;6.686;2023-03-31T10:03:09;10.45;;;3.35;;
54683;SDS011;40582;53.100;6.686;2023-03-31T10:05:47;11.10;;;3.83;;
54683;SDS011;40582;53.100;6.686;2023-03-31T10:10:48;8.98;;;3.13;;
54683;SDS011;40582;53.100;6.686;2023-03-31T10:13:18;9.93;;;3.17;;
54683;SDS011;40582;53.100;6.686;2023-03-31T10:15:46;10.52;;;3.28;;
54683;SDS011;40582;53.100;6.686;2023-03-31T10:18:16;6.40;;;3.05;;
54683;SDS011;40582;53.100;6.686;2023-03-31T10:20:47;10.07;;;3.05;;
54683;SDS011;40582;53.100;6.686;2023-03-31T10:26:10;9.20;;;3.20;;
54683;SDS011;40582;53.100;6.686;2023-03-31T10:28:41;11.75;;;3.10;;
54683;SDS011;40582;53.100;6.686;2023-03-31T10:31:07;8.00;;;2.70;;
54683;SDS011;40582;53.100;6.686;2023-03-31T10:33:33;7.07;;;3.22;;
54683;SDS011;40582;53.100;6.686;2023-03-31T10:36:07;10.48;;;4.20;;
54683;SDS011;40582;53.100;6.686;2023-03-31T10:38:41;8.57;;;2.67;;
54683;SDS011;40582;53.100;6.686;2023-03-31T10:41:10;7.15;;;3.15;;
54683;SDS011;40582;53.100;6.686;2023-03-31T10:43:41;7.20;;;2.78;;
54683;SDS011;40582;53.100;6.686;2023-03-31T10:46:12;8.75;;;2.83;;
54683;SDS011;40582;53.100;6.686;2023-03-31T10:48:39;10.73;;;2.47;;
54683;SDS011;40582;53.100;6.686;2023-03-31T10:53:45;6.80;;;2.58;;
54683;SDS011;40582;53.100;6.686;2023-03-31T10:56:28;7.93;;;2.50;;
54683;SDS011;40582;53.100;6.686;2023-03-31T11:02:20;8.68;;;3.80;;
54683;SDS011;40582;53.100;6.686;2023-03-31T11:10:26;11.52;;;2.70;;
54683;SDS011;40582;53.100;6.686;2023-03-31T11:21:22;10.15;;;2.83;;
54683;SDS011;40582;53.100;6.686;2023-03-31T11:27:16;12.20;;;2.80;;
54683;SDS011;40582;53.100;6.686;2023-03-31T11:29:50;7.65;;;2.60;;
54683;SDS011;40582;53.100;6.686;2023-03-31T11:46:10;9.27;;;2.75;;
54683;SDS011;40582;53.100;6.686;2023-03-31T11:48:53;7.03;;;2.60;;
54683;SDS011;40582;53.100;6.686;2023-03-31T11:51:25;7.65;;;2.58;;
54683;SDS011;40582;53.100;6.686;2023-03-31T11:54:17;6.82;;;2.25;;
54683;SDS011;40582;53.100;6.686;2023-03-31T11:56:49;6.25;;;2.30;;
54683;SDS011;40582;53.100;6.686;2023-03-31T11:59:16;8.57;;;2.53;;
54683;SDS011;40582;53.100;6.686;2023-03-31T12:04:40;6.90;;;2.30;;
54683;SDS011;40582;53.100;6.686;2023-03-31T12:12:44;5.15;;;2.40;;
54683;SDS011;40582;53.100;6.686;2023-03-31T12:15:30;6.72;;;2.17;;
54683;SDS011;40582;53.100;6.686;2023-03-31T12:18:21;5.53;;;2.40;;
54683;SDS011;40582;53.100;6.686;2023-03-31T12:20:54;12.50;;;2.33;;
54683;SDS011;40582;53.100;6.686;2023-03-31T12:23:22;9.85;;;2.70;;
54683;SDS011;40582;53.100;6.686;2023-03-31T12:26:10;9.55;;;3.10;;
54683;SDS011;40582;53.100;6.686;2023-03-31T12:29:06;10.20;;;3.08;;
54683;SDS011;40582;53.100;6.686;2023-03-31T12:31:45;8.57;;;2.70;;
54683;SDS011;40582;53.100;6.686;2023-03-31T12:34:13;7.38;;;2.72;;
54683;SDS011;40582;53.100;6.686;2023-03-31T12:45:09;16.52;;;3.45;;
54683;SDS011;40582;53.100;6.686;2023-03-31T12:55:54;9.45;;;3.22;;
54683;SDS011;40582;53.100;6.686;2023-03-31T13:03:51;14.50;;;3.65;;
54683;SDS011;40582;53.100;6.686;2023-03-31T13:09:05;8.90;;;2.90;;
54683;SDS011;40582;53.100;6.686;2023-03-31T13:11:51;13.38;;;3.10;;
54683;SDS011;40582;53.100;6.686;2023-03-31T13:16:45;14.02;;;3.47;;
54683;SDS011;40582;53.100;6.686;2023-03-31T13:19:12;12.10;;;3.53;;
54683;SDS011;40582;53.100;6.686;2023-03-31T13:21:56;10.15;;;3.25;;
54683;SDS011;40582;53.100;6.686;2023-03-31T13:24:23;11.98;;;3.50;;
54683;SDS011;40582;53.100;6.686;2023-03-31T13:26:51;10.82;;;3.22;;
54683;SDS011;40582;53.100;6.686;2023-03-31T13:32:27;10.07;;;3.35;;
54683;SDS011;40582;53.100;6.686;2023-03-31T13:48:27;14.63;;;3.80;;
54683;SDS011;40582;53.100;6.686;2023-03-31T14:07:30;11.20;;;3.45;;
54683;SDS011;40582;53.100;6.686;2023-03-31T14:10:01;19.30;;;6.68;;
54683;SDS011;40582;53.100;6.686;2023-03-31T14:12:32;3.28;;;1.35;;
54683;SDS011;40582;53.100;6.686;2023-03-31T14:15:00;4.45;;;1.45;;
54683;SDS011;40582;53.100;6.686;2023-03-31T14:17:32;4.00;;;1.50;;
54683;SDS011;40582;53.100;6.686;2023-03-31T14:25:31;6.97;;;2.03;;
54683;SDS011;40582;53.100;6.686;2023-03-31T14:31:04;7.95;;;2.42;;
54683;SDS011;40582;53.100;6.686;2023-03-31T14:39:30;9.13;;;2.45;;
54683;SDS011;40582;53.100;6.686;2023-03-31T14:42:04;6.80;;;2.40;;
54683;SDS011;40582;53.100;6.686;2023-03-31T14:47:02;10.98;;;2.65;;
54683;SDS011;40582;53.100;6.686;2023-03-31T14:49:37;7.90;;;2.28;;
54683;SDS011;40582;53.100;6.686;2023-03-31T14:52:10;7.80;;;2.10;;
54683;SDS011;40582;53.100;6.686;2023-03-31T14:54:39;9.52;;;2.25;;
54683;SDS011;40582;53.100;6.686;2023-03-31T14:57:06;7.07;;;1.95;;
54683;SDS011;40582;53.100;6.686;2023-03-31T14:59:34;11.57;;;2.67;;
54683;SDS011;40582;53.100;6.686;2023-03-31T15:02:02;6.57;;;2.15;;
54683;SDS011;40582;53.100;6.686;2023-03-31T15:04:30;8.80;;;2.35;;
54683;SDS011;40582;53.100;6.686;2023-03-31T15:07:01;9.40;;;1.80;;
54683;SDS011;40582;53.100;6.686;2023-03-31T15:09:29;5.45;;;1.77;;
54683;SDS011;40582;53.100;6.686;2023-03-31T15:11:59;9.50;;;2.47;;
54683;SDS011;40582;53.100;6.686;2023-03-31T15:14:39;10.82;;;2.47;;
54683;SDS011;40582;53.100;6.686;2023-03-31T15:19:42;5.70;;;2.00;;
54683;SDS011;40582;53.100;6.686;2023-03-31T15:22:09;9.02;;;2.50;;
54683;SDS011;40582;53.100;6.686;2023-03-31T15:24:42;7.00;;;2.22;;
54683;SDS011;40582;53.100;6.686;2023-03-31T15:27:09;3.75;;;1.52;;
54683;SDS011;40582;53.100;6.686;2023-03-31T15:29:45;5.70;;;1.65;;
54683;SDS011;40582;53.100;6.686;2023-03-31T15:32:26;6.85;;;1.80;;
54683;SDS011;40582;53.100;6.686;2023-03-31T15:34:53;5.38;;;1.77;;
54683;SDS011;40582;53.100;6.686;2023-03-31T15:37:23;7.78;;;3.47;;
54683;SDS011;40582;53.100;6.686;2023-03-31T15:39:53;9.35;;;3.70;;
54683;SDS011;40582;53.100;6.686;2023-03-31T15:42:22;11.77;;;3.67;;
54683;SDS011;40582;53.100;6.686;2023-03-31T15:47:49;7.80;;;2.30;;
54683;SDS011;40582;53.100;6.686;2023-03-31T15:50:16;13.70;;;3.17;;
54683;SDS011;40582;53.100;6.686;2023-03-31T15:52:48;13.45;;;3.58;;
54683;SDS011;40582;53.100;6.686;2023-03-31T15:57:53;9.55;;;2.58;;
54683;SDS011;40582;53.100;6.686;2023-03-31T16:05:53;10.23;;;3.33;;
54683;SDS011;40582;53.100;6.686;2023-03-31T16:08:29;11.63;;;2.72;;
54683;SDS011;40582;53.100;6.686;2023-03-31T16:11:03;9.90;;;3.20;;
54683;SDS011;40582;53.100;6.686;2023-03-31T16:13:42;14.67;;;5.07;;
54683;SDS011;40582;53.100;6.686;2023-03-31T16:16:13;9.50;;;2.85;;
54683;SDS011;40582;53.100;6.686;2023-03-31T16:18:45;11.13;;;4.10;;
54683;SDS011;40582;53.100;6.686;2023-03-31T16:21:17;11.35;;;3.42;;
54683;SDS011;40582;53.100;6.686;2023-03-31T16:23:50;9.45;;;3.10;;
54683;SDS011;40582;53.100;6.686;2023-03-31T16:26:21;8.45;;;2.90;;
54683;SDS011;40582;53.100;6.686;2023-03-31T16:28:50;13.35;;;3.20;;
54683;SDS011;40582;53.100;6.686;2023-03-31T16:31:28;14.63;;;3.20;;
54683;SDS011;40582;53.100;6.686;2023-03-31T16:34:10;12.00;;;3.78;;
54683;SDS011;40582;53.100;6.686;2023-03-31T16:36:36;16.45;;;3.08;;
54683;SDS011;40582;53.100;6.686;2023-03-31T16:39:02;10.30;;;3.03;;
54683;SDS011;40582;53.100;6.686;2023-03-31T16:41:30;13.10;;;2.97;;
54683;SDS011;40582;53.100;6.686;2023-03-31T16:43:57;13.75;;;2.88;;
54683;SDS011;40582;53.100;6.686;2023-03-31T16:46:23;9.27;;;3.35;;
54683;SDS011;40582;53.100;6.686;2023-03-31T16:48:49;14.40;;;3.75;;
54683;SDS011;40582;53.100;6.686;2023-03-31T16:51:16;16.25;;;3.40;;
54683;SDS011;40582;53.100;6.686;2023-03-31T16:53:43;12.63;;;3.20;;
54683;SDS011;40582;53.100;6.686;2023-03-31T16:56:11;8.98;;;3.13;;
54683;SDS011;40582;53.100;6.686;2023-03-31T16:58:38;12.35;;;3.38;;
54683;SDS011;40582;53.100;6.686;2023-03-31T17:01:05;14.38;;;3.65;;
54683;SDS011;40582;53.100;6.686;2023-03-31T17:03:31;16.77;;;3.50;;
54683;SDS011;40582;53.100;6.686;2023-03-31T17:06:03;14.15;;;3.70;;
54683;SDS011;40582;53.100;6.686;2023-03-31T17:08:30;17.38;;;4.05;;
54683;SDS011;40582;53.100;6.686;2023-03-31T17:11:04;16.73;;;3.67;;
54683;SDS011;40582;53.100;6.686;2023-03-31T17:13:36;15.73;;;3.55;;
54683;SDS011;40582;53.100;6.686;2023-03-31T17:16:03;13.43;;;2.80;;
54683;SDS011;40582;53.100;6.686;2023-03-31T17:18:29;13.38;;;3.40;;
54683;SDS011;40582;53.100;6.686;2023-03-31T17:21:01;14.63;;;3.88;;
54683;SDS011;40582;53.100;6.686;2023-03-31T17:23:35;11.45;;;3.58;;
54683;SDS011;40582;53.100;6.686;2023-03-31T17:26:01;15.07;;;4.68;;
54683;SDS011;40582;53.100;6.686;2023-03-31T17:28:28;13.68;;;4.07;;
54683;SDS011;40582;53.100;6.686;2023-03-31T17:30:55;13.70;;;4.15;;
54683;SDS011;40582;53.100;6.686;2023-03-31T17:33:21;14.73;;;4.53;;
54683;SDS011;40582;53.100;6.686;2023-03-31T17:35:47;14.57;;;4.43;;
54683;SDS011;40582;53.100;6.686;2023-03-31T17:38:13;12.00;;;3.88;;
54683;SDS011;40582;53.100;6.686;2023-03-31T17:40:39;17.08;;;3.88;;
54683;SDS011;40582;53.100;6.686;2023-03-31T17:43:05;12.25;;;3.22;;
54683;SDS011;40582;53.100;6.686;2023-03-31T17:45:31;9.18;;;3.13;;
54683;SDS011;40582;53.100;6.686;2023-03-31T17:47:57;15.57;;;3.67;;
54683;SDS011;40582;53.100;6.686;2023-03-31T17:50:24;13.82;;;3.70;;
54683;SDS011;40582;53.100;6.686;2023-03-31T17:52:51;9.43;;;3.15;;
54683;SDS011;40582;53.100;6.686;2023-03-31T17:55:17;10.30;;;2.97;;
54683;SDS011;40582;53.100;6.686;2023-03-31T17:57:43;8.63;;;2.95;;
54683;SDS011;40582;53.100;6.686;2023-03-31T18:00:10;10.77;;;3.50;;
54683;SDS011;40582;53.100;6.686;2023-03-31T18:02:39;14.25;;;3.70;;
54683;SDS011;40582;53.100;6.686;2023-03-31T18:05:06;14.70;;;3.78;;
54683;SDS011;40582;53.100;6.686;2023-03-31T18:07:33;8.75;;;3.40;;
54683;SDS011;40582;53.100;6.686;2023-03-31T18:10:00;10.43;;;3.70;;
54683;SDS011;40582;53.100;6.686;2023-03-31T18:12:26;8.38;;;3.58;;